Wheelersburg, OH (45694)

10:12 AM EST on November 24, 2014 (GMT -0500)
Thomas Hollow | Change Station
CLOSE
Current Station
Personal Weather Station
Location: Lucasville, OH
Elevation: 719 ft
Nearby Weather Stations
Active Advisory: Wind Advisory

Elev 719 ft 38.89 °N, 82.97 °W | Updated 11 minutes ago

Partly Cloudy
Partly Cloudy
64.6 °F
Feels Like 64.6 °F
N
5.8
Wind Variable Wind from NNW
Gusts 10.5 mph

Today
High -- | Low -- °F
--% Chance of Precip.
Yesterday
High -- | Low -- °F
Precip. -- in
7:23 AM 5:12 PM
Waxing Crescent, 5% visible
Pressure 29.48 in
Visibility 10.0 miles
Clouds Mostly Cloudy 6000 ft
Mostly Cloudy 7000 ft
Dew Point 16 °F
Humidity 15%
Rainfall 0.12 in
Snow Depth Not available.
UV 1 out of 12
Pollen .10 out of 12
Air Quality Not available.
Flu Activity Not available.
METAR KHTS 241451Z 21022G33KT 10SM BKN060 BKN070 19/08 A2949 RMK AO2 PK WND 19035/1432 SLP981 T01890083 53008

More Conditions Fewer Conditions

Pressure 29.48 in
Visibility 10.0 miles
Clouds Mostly Cloudy 6000 ft
Mostly Cloudy 7000 ft
Dew Point 16 °F
Humidity 15%
Rainfall 0.12 in
Snow Depth Not available.
UV 1 out of 12
Pollen .10 out of 12
Air Quality Not available.
Flu Activity Not available.
METAR KHTS 241451Z 21022G33KT 10SM BKN060 BKN070 19/08 A2949 RMK AO2 PK WND 19035/1432 SLP981 T01890083 53008

More Conditions Fewer Conditions

10-Day Weather Forecast

Almanac

Astronomy

Nov. 24, 2014 Rise Set
Actual Time
Civil Twilight
Nautical Twilight
Astronomical Twilight
Moon
Length of Visible Light
Length of Day
Tomorrow will be .
, % of the Moon is Illuminated

Today's Extremes

State Highs State Lows

Community

WunderPhotos

Upload Photos

1,773,360 photos uploaded!

WunderBlogs® & News

Nearby

Air Quality

  Air Quality AQ Index Pollutant
Not available.

Snow Depth

Station Depth Elevation

Earthquake Activity

City Distance Mag. Time & Date
Minimum magnitude displayed is 2.5.

Coastal Water Temperatures

Place Temperature

Nearby Weather Stations